OOCL Long Beach — VRYO4 — position and weather

sailwx.info

Track history (hours):
 
Tides and Currents Weather Stations Pressure Air Temp Water Temp Dewpoint Dewpoint Depression Visibility Wind Speed Wind Dir Waves Ship Positions

OOCL Long Beach

Last reported at 2014-Sep-16 14:33 UTC. Time now 2014-Sep-16 15:30 UTC.
Position N 22°33' E 120°19'.

Length 323 m; beam 42.8 m; draft 14.5 m.

Type: Cargo ship. MMSI: 477316000.

Date/timePositionNaut miles runAvg speedWind from/ knotsBaromVisibWave heightAir tempDewpointWater temp
2014-Sep-16 14:33N 22°33' E 120°19'6 6.1
2014-Sep-16 13:33N 22°31' E 120°12'9 8.9
2014-Sep-16 12:33N 22°40' E 120°09'1312.5
2014-Sep-16 11:33N 22°50' E 120°01'  
2014-Sep-12 22:33N 34°43' E 139°40'1515.2
2014-Sep-12 21:33N 34°49' E 139°57'1414.4
2014-Sep-12 20:34N 34°56' E 140°12'1614.4
2014-Sep-12 19:26N 35°05' E 140°29'1213.6
2014-Sep-12 18:33N 35°11' E 140°41'1212.4
2014-Sep-12 17:33N 35°18' E 140°54'1313.2
2014-Sep-12 16:33N 35°25' E 141°08'1312.9
2014-Sep-12 15:33N 35°32' E 141°21'3013.0
2014-Sep-12 13:13N 35°47' E 141°53'812.4
2014-Sep-12 12:33N 35°52' E 142°02'1212.0
2014-Sep-12 11:33N 35°58' E 142°15'1313.1
2014-Sep-12 10:31N 36°05' E 142°29'1514.2
2014-Sep-12 09:29N 36°12' E 142°45'  
Track history (hours):
 
Tides and Currents Weather Stations Pressure Air Temp Water Temp Dewpoint Dewpoint Depression Visibility Wind Speed Wind Dir Waves Ship Positions

OOCL Long Beach

Last reported at 2014-Sep-16 14:33 UTC. Time now 2014-Sep-16 15:30 UTC.
Position N 22°33' E 120°19'.

Length 323 m; beam 42.8 m; draft 14.5 m.

Type: Cargo ship. MMSI: 477316000.

Date/timePositionNaut miles runAvg speedWind from/ knotsBaromVisibWave heightAir tempDewpointWater temp
2014-Sep-16 14:33N 22°33' E 120°19'6 6.1
2014-Sep-16 13:33N 22°31' E 120°12'9 8.9
2014-Sep-16 12:33N 22°40' E 120°09'1312.5
2014-Sep-16 11:33N 22°50' E 120°01'  
2014-Sep-12 22:33N 34°43' E 139°40'1515.2
2014-Sep-12 21:33N 34°49' E 139°57'1414.4
2014-Sep-12 20:34N 34°56' E 140°12'1614.4
2014-Sep-12 19:26N 35°05' E 140°29'1213.6
2014-Sep-12 18:33N 35°11' E 140°41'1212.4
2014-Sep-12 17:33N 35°18' E 140°54'1313.2
2014-Sep-12 16:33N 35°25' E 141°08'1312.9
2014-Sep-12 15:33N 35°32' E 141°21'3013.0
2014-Sep-12 13:13N 35°47' E 141°53'812.4
2014-Sep-12 12:33N 35°52' E 142°02'1212.0
2014-Sep-12 11:33N 35°58' E 142°15'1313.1
2014-Sep-12 10:31N 36°05' E 142°29'1514.2
2014-Sep-12 09:29N 36°12' E 142°45'  

Dump ship's entire track history